Aérodrome :
LOGIN :

S'inscrire | Disclaimer

   EN    FR    IT 

 










Légende :    VFR   VFR Marginal   IFR   IFR Intensif   IFR Très Intensif
Visi : 
Plafond : 
>= 8 km
>= 3000ft
5 à 8 km
1000 à 3000 ft
1500m à 5 km
500 à 1000 ft
800 à 1500m
200 à 500 ft
< 800m
< 200 ft
Symboles :   Orages  Brouillard  Fortes neiges  Fortes précipitations  Vent > 20 kt
SIGMETs :   Divers  Orages  Givrage  Turbulence  Onde Orograph.  Cendres Volcan.






- Altitude de l'aérodrome : 124 ft
- Code IATA : NHT


EGWU - RAF Northolt

DERNIER METAR :
  • 152050Z 22013G27KT 9999 FEW018CB BKN035 07/05 Q0999 RESHRA TEMPO 6000 SHRA SCT018CB RMK BLU TEMPO WHT

METARs EXPIRÉS :
  • 152028Z 23008KT 6000 SHRA SCT018CB BKN035 07/06 Q0999 BECMG 9999 NSW FEW018CB RMK WHT BECMG BLU
  • 152020Z 22008KT 9999 -SHRA SCT028 BKN035 08/05 Q0998 TEMPO 7000 SHRA RMK BLU TEMPO WHT
  • 151950Z 20009KT 9999 FEW035 BKN120 07/06 Q0998 RESHRA TEMPO 7000 SHRA RMK BLU TEMPO WHT
  • 151920Z 21010KT 9999 FEW035 BKN120 07/05 Q0998 RESHRA TEMPO 7000 SHRA RMK BLU TEMPO WHT
  • 151901Z 22013KT 7000 SHRA FEW014 BKN035 BKN120 08/06 Q0998 BECMG 9999 NSW RMK WHT BECMG BLU

TAF TAF EGWU
Valide du 15 à 21h jusqu'au 16 à 15h UTC


151924Z 1521/1615 21012KT 9999 FEW040
PROB40
TEMPO 1521/1524 7000 SHRA
PROB30
TEMPO 1521/1524 22015G25KT 4000 +TSRA SCT012 BKN018CB



MET'MAP, la Météo Aéronautique d'un coup d'oeil ! - Copyright ORBIFLY Décembre 2007 - Disclaimer

ORBIFLY MET'MAP TEAM :

Programmation & Développement : Alexandra Zaïnal
Sur une idée originale de : Baudouin d'Aumeries
Assistance à la programmation : Marc-Olivier Méhu
Soutien technique & logistique : Manuel Goepfert

Contact : metmap@orbifly.com




SOURCES & CREDITS :

   NOAA